createdAt,value
2022-09-26T00:01:49.688Z,57.20
2022-09-26T00:06:55.576Z,57.30
2022-09-26T00:11:58.719Z,57.50
2022-09-26T00:17:01.669Z,57.20
2022-09-26T00:22:06.007Z,57.30
2022-09-26T00:27:08.893Z,57.50
2022-09-26T00:32:11.806Z,57.40
2022-09-26T00:37:16.539Z,57.40
2022-09-26T00:42:19.421Z,57.50
2022-09-26T00:47:40.725Z,57.50
2022-09-26T00:52:50.399Z,57.90
2022-09-26T00:57:58.600Z,57.70
2022-09-26T01:03:02.180Z,57.50
2022-09-26T01:08:07.103Z,57.40
2022-09-26T01:13:10.011Z,57.50
2022-09-26T01:18:13.166Z,57.50
2022-09-26T01:24:08.637Z,57.50
2022-09-26T01:29:54.187Z,57.90
2022-09-26T01:35:08.100Z,57.90
2022-09-26T01:40:22.067Z,57.60
2022-09-26T01:45:33.518Z,57.60
2022-09-26T01:50:42.327Z,57.50
2022-09-26T01:55:49.409Z,57.60
2022-09-26T02:00:58.314Z,57.60
2022-09-26T02:06:05.418Z,57.50
2022-09-26T02:11:12.773Z,57.60
2022-09-26T02:16:23.635Z,57.60
2022-09-26T02:21:27.923Z,57.50
2022-09-26T02:26:31.411Z,57.50
2022-09-26T02:31:43.126Z,57.10
2022-09-26T02:36:46.429Z,57.20
2022-09-26T02:41:52.315Z,57.20
2022-09-26T02:47:19.187Z,57.60
2022-09-26T02:52:35.550Z,58.30
2022-09-26T02:57:46.675Z,58.20
2022-09-26T03:03:00.284Z,58.10
2022-09-26T03:08:07.652Z,58.30
2022-09-26T03:13:14.317Z,58.00
2022-09-26T03:18:23.628Z,57.70
2022-09-26T03:23:27.905Z,57.80
2022-09-26T03:28:37.815Z,57.70
2022-09-26T03:33:42.540Z,57.80
2022-09-26T03:38:45.749Z,58.00
2022-09-26T03:44:08.285Z,58.00
2022-09-26T03:49:50.837Z,58.00
2022-09-26T03:54:54.470Z,58.10
2022-09-26T03:59:58.202Z,58.20
2022-09-26T04:05:09.947Z,58.40
2022-09-26T04:10:13.166Z,58.50
2022-09-26T04:15:16.550Z,58.40
2022-09-26T04:20:21.584Z,58.50
2022-09-26T04:25:25.087Z,58.60
2022-09-26T04:30:29.906Z,58.60
2022-09-26T04:35:37.984Z,58.60
2022-09-26T04:40:43.124Z,58.50
2022-09-26T04:45:48.367Z,58.60
2022-09-26T04:50:52.756Z,58.70
2022-09-26T04:55:55.689Z,58.80
2022-09-26T05:01:04.356Z,58.80
2022-09-26T05:06:21.413Z,59.10
2022-09-26T05:11:25.018Z,58.90
2022-09-26T05:16:28.182Z,58.80
2022-09-26T05:21:34.317Z,58.60
2022-09-26T05:26:43.547Z,58.70
2022-09-26T05:31:46.962Z,58.70
2022-09-26T05:36:51.810Z,58.60
2022-09-26T05:41:56.009Z,58.80
2022-09-26T05:46:59.498Z,58.70
2022-09-26T05:52:05.161Z,58.80
2022-09-26T05:57:08.427Z,58.80
2022-09-26T06:02:21.033Z,58.80
2022-09-26T06:07:51.845Z,58.80
2022-09-26T06:13:15.319Z,58.80
2022-09-26T06:18:28.085Z,58.80
2022-09-26T06:23:34.181Z,58.80
2022-09-26T06:28:38.880Z,58.90
2022-09-26T06:33:42.361Z,58.90
2022-09-26T06:39:15.895Z,59.10
2022-09-26T06:44:20.961Z,59.20
2022-09-26T06:49:27.200Z,59.20
2022-09-26T06:54:38.921Z,59.50
2022-09-26T06:59:41.835Z,59.90
2022-09-26T07:04:54.207Z,60.00
2022-09-26T07:10:10.680Z,60.30
2022-09-26T07:15:18.179Z,60.30
2022-09-26T07:20:21.839Z,60.30
2022-09-26T07:25:33.150Z,60.60
2022-09-26T07:30:37.728Z,60.70
2022-09-26T07:35:50.346Z,60.70
2022-09-26T07:40:56.011Z,60.60
2022-09-26T07:46:16.611Z,60.80
2022-09-26T07:51:24.234Z,60.50
2022-09-26T07:56:29.134Z,60.50
2022-09-26T08:01:37.566Z,60.30
2022-09-26T08:07:00.459Z,60.00
2022-09-26T08:12:05.630Z,60.00
2022-09-26T08:17:24.766Z,60.00
2022-09-26T08:22:28.221Z,60.00
2022-09-26T08:27:35.219Z,60.00
2022-09-26T08:32:38.961Z,59.80
2022-09-26T08:37:42.008Z,60.40
2022-09-26T08:43:21.451Z,59.60
2022-09-26T08:49:22.847Z,59.20
2022-09-26T08:54:35.139Z,58.70
2022-09-26T08:59:43.433Z,58.70
2022-09-26T09:04:54.125Z,58.50
2022-09-26T09:10:03.879Z,58.40
2022-09-26T09:15:57.566Z,58.10
2022-09-26T09:21:18.067Z,57.10
2022-09-26T09:32:26.855Z,57.00
2022-09-26T09:37:53.237Z,56.80
2022-09-26T09:43:06.830Z,56.50
2022-09-26T09:48:13.670Z,56.50
2022-09-26T09:53:31.015Z,56.80
2022-09-26T09:58:57.553Z,57.10
2022-09-26T10:04:15.320Z,56.50
2022-09-26T10:09:35.230Z,56.50
2022-09-26T10:15:06.690Z,56.00
2022-09-26T10:20:40.846Z,55.60
2022-09-26T10:25:48.612Z,55.60
2022-09-26T10:30:54.616Z,55.30
2022-09-26T10:36:08.910Z,55.00
2022-09-26T10:41:23.979Z,55.00
2022-09-26T10:46:29.992Z,55.00
2022-09-26T10:52:01.386Z,54.90
2022-09-26T10:57:09.431Z,54.90
2022-09-26T11:02:19.985Z,55.20
2022-09-26T11:07:27.819Z,55.60
2022-09-26T11:12:58.846Z,55.70
2022-09-26T11:18:04.452Z,55.70
2022-09-26T11:23:20.139Z,56.00
2022-09-26T11:28:27.847Z,55.20
2022-09-26T11:33:49.124Z,55.10
2022-09-26T11:39:38.152Z,54.80
2022-09-26T11:44:54.315Z,55.10
2022-09-26T11:50:14.650Z,55.10
2022-09-26T11:55:48.710Z,55.20
2022-09-26T12:00:59.144Z,55.20
2022-09-26T12:06:09.832Z,54.80
2022-09-26T12:11:25.564Z,54.70
2022-09-26T12:16:36.937Z,54.70
2022-09-26T12:22:10.577Z,54.70
2022-09-26T12:27:25.610Z,55.10
2022-09-26T12:32:41.291Z,55.30
2022-09-26T12:38:01.180Z,55.60
2022-09-26T12:43:26.035Z,55.80
2022-09-26T12:48:42.395Z,56.70
2022-09-26T12:54:09.759Z,56.10
2022-09-26T12:59:25.925Z,56.20
2022-09-26T13:04:50.756Z,55.90
2022-09-26T13:10:06.388Z,55.70
2022-09-26T13:15:23.775Z,55.80
2022-09-26T13:20:33.027Z,55.80
2022-09-26T13:25:39.999Z,55.90
2022-09-26T13:30:50.031Z,56.10
2022-09-26T13:35:56.172Z,56.10
2022-09-26T13:41:04.849Z,56.20
2022-09-26T13:46:23.232Z,56.20
2022-09-26T13:51:39.362Z,56.50
2022-09-26T13:56:47.803Z,56.40
2022-09-26T14:02:22.137Z,56.20
2022-09-26T14:08:04.172Z,56.40
2022-09-26T14:13:20.115Z,56.30
2022-09-26T14:18:47.146Z,56.80
2022-09-26T14:23:51.976Z,56.80
2022-09-26T14:28:56.955Z,56.90
2022-09-26T14:34:17.437Z,57.00
2022-09-26T14:39:33.270Z,56.80
2022-09-26T14:44:37.458Z,56.90
2022-09-26T14:49:42.095Z,56.50
2022-09-26T14:54:46.134Z,56.30
2022-09-26T14:59:49.354Z,56.10
2022-09-26T15:05:04.237Z,56.00
2022-09-26T15:10:20.508Z,55.70
2022-09-26T15:15:35.282Z,55.70
2022-09-26T15:20:48.816Z,55.80
2022-09-26T15:25:53.251Z,55.70
2022-09-26T15:31:24.868Z,55.90
2022-09-26T15:36:34.729Z,55.80
2022-09-26T15:42:03.925Z,55.80
2022-09-26T15:47:27.763Z,55.70
2022-09-26T15:52:35.322Z,55.70
2022-09-26T15:57:38.370Z,55.70
2022-09-26T16:02:41.848Z,55.70
2022-09-26T16:07:51.988Z,55.60
2022-09-26T16:12:55.344Z,55.70
2022-09-26T16:17:59.564Z,55.50
2022-09-26T16:23:05.861Z,55.50
2022-09-26T16:28:39.537Z,55.40
2022-09-26T16:33:42.540Z,55.40
2022-09-26T16:38:51.806Z,55.50
2022-09-26T16:43:57.998Z,55.50
2022-09-26T16:49:02.957Z,55.40
2022-09-26T16:54:20.913Z,55.40
2022-09-26T16:59:26.284Z,55.60
2022-09-26T17:04:34.525Z,55.60
2022-09-26T17:09:41.257Z,55.80
2022-09-26T17:14:46.796Z,55.70
2022-09-26T17:19:59.146Z,55.80
2022-09-26T17:25:04.794Z,55.90
2022-09-26T17:30:16.300Z,55.90
2022-09-26T17:35:25.791Z,56.10
2022-09-26T17:40:31.962Z,56.20
2022-09-26T17:45:36.909Z,56.30
2022-09-26T17:50:40.095Z,56.40
2022-09-26T17:55:44.469Z,56.40
2022-09-26T18:00:49.689Z,56.50
2022-09-26T18:05:53.655Z,56.50
2022-09-26T18:11:00.485Z,56.50
2022-09-26T18:16:03.728Z,56.60
2022-09-26T18:21:10.649Z,56.50
2022-09-26T18:26:29.955Z,56.60
2022-09-26T18:31:35.376Z,57.60
2022-09-26T18:36:38.304Z,56.70
2022-09-26T18:41:44.991Z,56.70
2022-09-26T18:46:49.189Z,56.90
2022-09-26T18:51:53.213Z,56.80
2022-09-26T18:57:17.417Z,56.90
2022-09-26T19:02:23.544Z,57.20
2022-09-26T19:07:26.736Z,57.20
2022-09-26T19:12:31.280Z,57.30
2022-09-26T19:17:34.511Z,57.40
2022-09-26T19:22:39.541Z,57.50
2022-09-26T19:27:52.043Z,57.70
2022-09-26T19:32:57.496Z,57.90
2022-09-26T19:38:01.610Z,57.70
2022-09-26T19:43:05.861Z,57.70
2022-09-26T19:48:11.328Z,57.90
2022-09-26T19:53:16.561Z,58.10
2022-09-26T19:58:22.751Z,58.20
2022-09-26T20:03:30.526Z,58.40
2022-09-26T20:08:35.314Z,58.40
2022-09-26T20:13:59.016Z,58.50
2022-09-26T20:19:04.116Z,58.60
2022-09-26T20:24:10.375Z,58.90
2022-09-26T20:29:16.461Z,58.80
2022-09-26T20:34:19.363Z,58.80
2022-09-26T20:39:24.727Z,58.80
2022-09-26T20:44:33.523Z,58.90
2022-09-26T20:49:51.350Z,59.20
2022-09-26T20:54:55.184Z,59.40
2022-09-26T20:59:59.432Z,59.30
2022-09-26T21:05:03.264Z,59.50
2022-09-26T21:10:22.500Z,59.50
2022-09-26T21:15:28.879Z,59.80
2022-09-26T21:20:34.892Z,59.60
2022-09-26T21:25:56.245Z,59.40
2022-09-26T21:31:04.057Z,59.50
2022-09-26T21:36:07.384Z,59.70
2022-09-26T21:41:11.668Z,59.60
2022-09-26T21:46:17.372Z,59.80
2022-09-26T21:51:21.403Z,59.90
2022-09-26T21:56:28.738Z,59.80
2022-09-26T22:01:33.101Z,59.80
2022-09-26T22:06:36.066Z,59.90
2022-09-26T22:11:40.188Z,59.90
2022-09-26T22:16:44.514Z,59.90
2022-09-26T22:21:47.496Z,60.00
2022-09-26T22:26:50.669Z,60.00
2022-09-26T22:31:54.985Z,60.10
2022-09-26T22:36:57.875Z,60.10
2022-09-26T22:42:00.769Z,60.00
2022-09-26T22:47:05.092Z,60.10
2022-09-26T22:52:07.965Z,60.20
2022-09-26T22:57:11.369Z,60.10
2022-09-26T23:02:15.699Z,60.40
2022-09-26T23:07:20.258Z,60.30
2022-09-26T23:12:23.160Z,60.30
2022-09-26T23:17:27.621Z,60.20
2022-09-26T23:22:30.697Z,60.30
2022-09-26T23:27:33.702Z,60.20
2022-09-26T23:32:37.960Z,60.20
2022-09-26T23:37:40.819Z,60.40
2022-09-26T23:42:43.708Z,60.30
2022-09-26T23:47:48.322Z,60.20
2022-09-26T23:52:51.260Z,60.30
2022-09-26T23:57:56.709Z,60.20
